sensor_id;sensor_type;location;lat;lon;timestamp;noise_LAeq;noise_LA_min;noise_LA_max;noise_LA01;noise_LA95
66455;Laerm;57651;51.438;5.982;2022-10-17T00:00:08;35.32;34.48;36.54;;
66455;Laerm;57651;51.438;5.982;2022-10-17T00:00:19;35.39;34.49;36.99;;
66455;Laerm;57651;51.438;5.982;2022-10-17T00:00:30;35.29;34.26;36.82;;
66455;Laerm;57651;51.438;5.982;2022-10-17T00:00:40;35.35;34.23;37.13;;
66455;Laerm;57651;51.438;5.982;2022-10-17T00:00:51;35.33;34.18;36.77;;
66455;Laerm;57651;51.438;5.982;2022-10-17T00:01:02;35.37;34.25;36.79;;
66455;Laerm;57651;51.438;5.982;2022-10-17T00:01:14;35.39;34.01;37.15;;
66455;Laerm;57651;51.438;5.982;2022-10-17T00:01:25;35.35;34.01;36.78;;
66455;Laerm;57651;51.438;5.982;2022-10-17T00:01:35;35.35;34.35;37.04;;
66455;Laerm;57651;51.438;5.982;2022-10-17T00:01:45;35.37;34.15;36.66;;
66455;Laerm;57651;51.438;5.982;2022-10-17T00:01:56;35.37;34.34;36.96;;
66455;Laerm;57651;51.438;5.982;2022-10-17T00:02:06;35.42;34.29;37.11;;
66455;Laerm;57651;51.438;5.982;2022-10-17T00:02:17;35.44;34.32;36.73;;
66455;Laerm;57651;51.438;5.982;2022-10-17T00:02:27;35.41;34.38;36.86;;
66455;Laerm;57651;51.438;5.982;2022-10-17T00:02:38;35.43;34.29;37.02;;
66455;Laerm;57651;51.438;5.982;2022-10-17T00:02:48;35.44;34.31;37.93;;
66455;Laerm;57651;51.438;5.982;2022-10-17T00:02:59;35.38;34.28;36.73;;
66455;Laerm;57651;51.438;5.982;2022-10-17T00:03:09;35.39;34.05;36.77;;
66455;Laerm;57651;51.438;5.982;2022-10-17T00:03:20;35.41;34.22;36.70;;
66455;Laerm;57651;51.438;5.982;2022-10-17T00:03:30;35.42;34.34;37.66;;
66455;Laerm;57651;51.438;5.982;2022-10-17T00:03:40;35.41;34.11;37.55;;
66455;Laerm;57651;51.438;5.982;2022-10-17T00:04:01;35.43;34.30;36.64;;
66455;Laerm;57651;51.438;5.982;2022-10-17T00:04:11;35.45;34.26;37.18;;
66455;Laerm;57651;51.438;5.982;2022-10-17T00:04:21;35.41;34.26;37.03;;
66455;Laerm;57651;51.438;5.982;2022-10-17T00:04:32;35.43;34.27;37.33;;
66455;Laerm;57651;51.438;5.982;2022-10-17T00:04:42;35.40;34.39;37.03;;
66455;Laerm;57651;51.438;5.982;2022-10-17T00:04:53;35.37;34.20;36.94;;
66455;Laerm;57651;51.438;5.982;2022-10-17T00:05:03;35.43;34.29;37.48;;
66455;Laerm;57651;51.438;5.982;2022-10-17T00:05:14;35.42;34.38;37.41;;
66455;Laerm;57651;51.438;5.982;2022-10-17T00:06:32;35.42;33.98;37.17;;
66455;Laerm;57651;51.438;5.982;2022-10-17T00:06:42;35.44;34.44;37.13;;
66455;Laerm;57651;51.438;5.982;2022-10-17T00:06:52;35.41;34.32;36.95;;
66455;Laerm;57651;51.438;5.982;2022-10-17T00:07:03;35.48;34.31;36.79;;
66455;Laerm;57651;51.438;5.982;2022-10-17T00:07:13;35.50;34.26;37.07;;
66455;Laerm;57651;51.438;5.982;2022-10-17T00:07:24;35.60;34.50;37.24;;
66455;Laerm;57651;51.438;5.982;2022-10-17T00:07:35;35.54;34.50;37.37;;
66455;Laerm;57651;51.438;5.982;2022-10-17T00:07:46;35.63;34.59;37.08;;
66455;Laerm;57651;51.438;5.982;2022-10-17T00:08:30;35.55;34.41;37.58;;
66455;Laerm;57651;51.438;5.982;2022-10-17T00:08:41;35.48;34.29;36.89;;
66455;Laerm;57651;51.438;5.982;2022-10-17T00:08:52;35.57;34.32;37.38;;
66455;Laerm;57651;51.438;5.982;2022-10-17T00:09:03;35.57;34.19;37.10;;
66455;Laerm;57651;51.438;5.982;2022-10-17T00:09:23;35.54;34.30;37.67;;
66455;Laerm;57651;51.438;5.982;2022-10-17T00:09:33;35.61;34.46;37.59;;
66455;Laerm;57651;51.438;5.982;2022-10-17T00:09:44;35.64;34.25;37.14;;
66455;Laerm;57651;51.438;5.982;2022-10-17T00:09:54;35.67;34.69;37.55;;
66455;Laerm;57651;51.438;5.982;2022-10-17T00:10:05;35.61;34.60;37.87;;
66455;Laerm;57651;51.438;5.982;2022-10-17T00:10:16;35.63;34.51;37.10;;
66455;Laerm;57651;51.438;5.982;2022-10-17T00:10:26;35.49;34.20;36.73;;
66455;Laerm;57651;51.438;5.982;2022-10-17T00:10:38;35.90;34.53;50.17;;
66455;Laerm;57651;51.438;5.982;2022-10-17T00:10:56;35.68;34.36;37.38;;
66455;Laerm;57651;51.438;5.982;2022-10-17T00:11:46;35.53;34.10;37.26;;
66455;Laerm;57651;51.438;5.982;2022-10-17T00:11:57;35.45;34.37;37.12;;
66455;Laerm;57651;51.438;5.982;2022-10-17T00:12:07;35.45;34.32;36.65;;
66455;Laerm;57651;51.438;5.982;2022-10-17T00:12:18;35.47;34.44;37.69;;
66455;Laerm;57651;51.438;5.982;2022-10-17T00:12:28;35.40;34.31;36.68;;
66455;Laerm;57651;51.438;5.982;2022-10-17T00:12:39;35.54;34.27;37.27;;
66455;Laerm;57651;51.438;5.982;2022-10-17T00:12:50;35.51;34.08;36.88;;
66455;Laerm;57651;51.438;5.982;2022-10-17T00:13:01;35.54;34.32;37.11;;
66455;Laerm;57651;51.438;5.982;2022-10-17T00:13:12;35.49;34.23;36.96;;
66455;Laerm;57651;51.438;5.982;2022-10-17T00:13:22;35.45;34.00;37.42;;
66455;Laerm;57651;51.438;5.982;2022-10-17T00:13:36;35.45;34.40;37.21;;
66455;Laerm;57651;51.438;5.982;2022-10-17T00:13:47;35.46;34.48;37.16;;
66455;Laerm;57651;51.438;5.982;2022-10-17T00:14:27;35.43;34.23;37.20;;
66455;Laerm;57651;51.438;5.982;2022-10-17T00:14:38;35.43;34.25;36.86;;
66455;Laerm;57651;51.438;5.982;2022-10-17T00:14:49;35.40;34.32;36.82;;
66455;Laerm;57651;51.438;5.982;2022-10-17T00:14:59;35.43;34.39;36.98;;
66455;Laerm;57651;51.438;5.982;2022-10-17T00:15:13;35.42;33.81;37.09;;
66455;Laerm;57651;51.438;5.982;2022-10-17T00:15:24;35.45;34.24;38.03;;
66455;Laerm;57651;51.438;5.982;2022-10-17T00:15:34;35.47;33.82;37.19;;
66455;Laerm;57651;51.438;5.982;2022-10-17T00:15:45;35.41;33.66;37.16;;
66455;Laerm;57651;51.438;5.982;2022-10-17T00:17:16;35.43;34.03;37.33;;
66455;Laerm;57651;51.438;5.982;2022-10-17T00:17:26;35.44;34.37;37.20;;
66455;Laerm;57651;51.438;5.982;2022-10-17T00:17:37;35.46;34.09;37.70;;
66455;Laerm;57651;51.438;5.982;2022-10-17T00:17:48;35.44;34.24;37.23;;
66455;Laerm;57651;51.438;5.982;2022-10-17T00:17:58;35.48;34.20;37.02;;
66455;Laerm;57651;51.438;5.982;2022-10-17T00:19:30;35.53;34.37;37.68;;
66455;Laerm;57651;51.438;5.982;2022-10-17T00:19:40;35.51;34.21;37.47;;
66455;Laerm;57651;51.438;5.982;2022-10-17T00:19:51;35.50;34.08;36.93;;
66455;Laerm;57651;51.438;5.982;2022-10-17T00:20:01;35.45;34.23;36.89;;
66455;Laerm;57651;51.438;5.982;2022-10-17T00:20:12;35.47;33.79;37.37;;
66455;Laerm;57651;51.438;5.982;2022-10-17T00:21:42;35.52;34.21;37.65;;
66455;Laerm;57651;51.438;5.982;2022-10-17T00:21:53;35.37;34.24;36.78;;
66455;Laerm;57651;51.438;5.982;2022-10-17T00:22:03;35.40;34.14;36.95;;
66455;Laerm;57651;51.438;5.982;2022-10-17T00:22:29;35.46;34.32;36.95;;
66455;Laerm;57651;51.438;5.982;2022-10-17T00:22:40;35.38;34.21;37.07;;
66455;Laerm;57651;51.438;5.982;2022-10-17T00:22:51;35.37;34.33;36.92;;
66455;Laerm;57651;51.438;5.982;2022-10-17T00:23:05;35.47;34.34;37.28;;
66455;Laerm;57651;51.438;5.982;2022-10-17T00:23:16;35.48;34.18;37.09;;
66455;Laerm;57651;51.438;5.982;2022-10-17T00:23:28;35.35;34.21;37.21;;
66455;Laerm;57651;51.438;5.982;2022-10-17T00:23:40;35.43;34.22;36.98;;
66455;Laerm;57651;51.438;5.982;2022-10-17T00:23:50;35.38;34.14;37.05;;
66455;Laerm;57651;51.438;5.982;2022-10-17T00:24:01;35.36;34.31;36.99;;
66455;Laerm;57651;51.438;5.982;2022-10-17T00:24:12;35.42;34.11;36.99;;
66455;Laerm;57651;51.438;5.982;2022-10-17T00:24:30;35.43;34.33;36.90;;
66455;Laerm;57651;51.438;5.982;2022-10-17T00:24:40;35.37;33.97;37.00;;
66455;Laerm;57651;51.438;5.982;2022-10-17T00:24:51;35.38;34.32;37.05;;
66455;Laerm;57651;51.438;5.982;2022-10-17T00:25:02;35.53;34.15;37.04;;
66455;Laerm;57651;51.438;5.982;2022-10-17T00:25:13;35.37;34.20;37.06;;
66455;Laerm;57651;51.438;5.982;2022-10-17T00:27:11;35.34;33.99;37.49;;
66455;Laerm;57651;51.438;5.982;2022-10-17T00:27:22;35.34;34.34;37.28;;
66455;Laerm;57651;51.438;5.982;2022-10-17T00:27:33;35.33;34.27;36.86;;
66455;Laerm;57651;51.438;5.982;2022-10-17T00:27:44;35.32;33.99;36.98;;
66455;Laerm;57651;51.438;5.982;2022-10-17T00:30:53;35.42;34.22;37.81;;
66455;Laerm;57651;51.438;5.982;2022-10-17T00:31:40;35.42;34.23;37.37;;
66455;Laerm;57651;51.438;5.982;2022-10-17T00:31:54;35.44;34.33;36.64;;
66455;Laerm;57651;51.438;5.982;2022-10-17T00:32:39;35.41;34.23;37.04;;
66455;Laerm;57651;51.438;5.982;2022-10-17T00:32:50;35.46;34.56;37.20;;
66455;Laerm;57651;51.438;5.982;2022-10-17T00:33:01;35.42;34.32;37.52;;
66455;Laerm;57651;51.438;5.982;2022-10-17T00:33:12;35.34;34.30;36.91;;
66455;Laerm;57651;51.438;5.982;2022-10-17T00:34:12;35.39;34.10;37.29;;
66455;Laerm;57651;51.438;5.982;2022-10-17T00:34:23;35.30;33.94;36.94;;
66455;Laerm;57651;51.438;5.982;2022-10-17T00:34:34;35.31;34.24;37.07;;
66455;Laerm;57651;51.438;5.982;2022-10-17T00:34:45;35.39;34.15;37.26;;
66455;Laerm;57651;51.438;5.982;2022-10-17T00:36:08;35.44;33.98;37.14;;
66455;Laerm;57651;51.438;5.982;2022-10-17T00:36:20;35.56;34.43;37.39;;
66455;Laerm;57651;51.438;5.982;2022-10-17T00:36:32;35.52;34.35;37.14;;
66455;Laerm;57651;51.438;5.982;2022-10-17T00:36:44;35.49;34.31;37.24;;
66455;Laerm;57651;51.438;5.982;2022-10-17T00:36:55;35.41;34.22;36.91;;
66455;Laerm;57651;51.438;5.982;2022-10-17T00:38:03;35.31;33.81;37.92;;
66455;Laerm;57651;51.438;5.982;2022-10-17T00:38:14;35.39;34.18;36.64;;
66455;Laerm;57651;51.438;5.982;2022-10-17T00:38:25;35.35;33.99;36.81;;
66455;Laerm;57651;51.438;5.982;2022-10-17T00:39:56;35.37;34.04;37.57;;
66455;Laerm;57651;51.438;5.982;2022-10-17T00:40:07;35.40;34.21;37.00;;
66455;Laerm;57651;51.438;5.982;2022-10-17T00:40:18;35.41;34.31;36.92;;
66455;Laerm;57651;51.438;5.982;2022-10-17T00:40:28;35.40;34.55;36.90;;
66455;Laerm;57651;51.438;5.982;2022-10-17T00:40:46;35.39;34.19;36.88;;
66455;Laerm;57651;51.438;5.982;2022-10-17T00:40:56;35.34;34.27;36.90;;
66455;Laerm;57651;51.438;5.982;2022-10-17T00:41:08;35.36;34.36;36.81;;
66455;Laerm;57651;51.438;5.982;2022-10-17T00:41:20;35.35;34.25;36.70;;
66455;Laerm;57651;51.438;5.982;2022-10-17T00:42:47;35.38;34.15;37.68;;
66455;Laerm;57651;51.438;5.982;2022-10-17T00:42:57;35.33;34.06;36.94;;
66455;Laerm;57651;51.438;5.982;2022-10-17T00:43:14;35.32;34.32;37.22;;
66455;Laerm;57651;51.438;5.982;2022-10-17T00:44:07;35.33;34.15;37.73;;
66455;Laerm;57651;51.438;5.982;2022-10-17T00:45:30;35.33;34.07;36.58;;
66455;Laerm;57651;51.438;5.982;2022-10-17T00:46:26;35.37;34.12;37.66;;
66455;Laerm;57651;51.438;5.982;2022-10-17T00:46:38;35.23;34.18;36.98;;
66455;Laerm;57651;51.438;5.982;2022-10-17T00:46:49;35.28;34.01;36.53;;
66455;Laerm;57651;51.438;5.982;2022-10-17T00:47:38;35.45;34.04;51.42;;
66455;Laerm;57651;51.438;5.982;2022-10-17T00:47:50;35.25;34.21;37.63;;
66455;Laerm;57651;51.438;5.982;2022-10-17T00:48:03;35.25;33.86;36.87;;
66455;Laerm;57651;51.438;5.982;2022-10-17T00:48:14;35.33;34.02;37.37;;
66455;Laerm;57651;51.438;5.982;2022-10-17T00:48:38;35.31;34.21;37.60;;
66455;Laerm;57651;51.438;5.982;2022-10-17T00:48:50;35.29;34.19;37.20;;
66455;Laerm;57651;51.438;5.982;2022-10-17T00:49:10;35.29;33.98;36.51;;
66455;Laerm;57651;51.438;5.982;2022-10-17T00:49:21;35.31;34.12;36.84;;
66455;Laerm;57651;51.438;5.982;2022-10-17T00:50:13;35.28;34.00;37.35;;
66455;Laerm;57651;51.438;5.982;2022-10-17T00:50:24;35.33;34.34;36.88;;
66455;Laerm;57651;51.438;5.982;2022-10-17T00:50:35;35.33;34.03;36.55;;
66455;Laerm;57651;51.438;5.982;2022-10-17T00:50:48;35.33;34.23;36.83;;
66455;Laerm;57651;51.438;5.982;2022-10-17T00:53:13;35.33;33.67;37.67;;
66455;Laerm;57651;51.438;5.982;2022-10-17T00:53:25;35.28;34.25;37.11;;
66455;Laerm;57651;51.438;5.982;2022-10-17T00:53:36;35.34;34.11;37.26;;
66455;Laerm;57651;51.438;5.982;2022-10-17T00:53:48;35.29;34.13;36.91;;
66455;Laerm;57651;51.438;5.982;2022-10-17T00:54:02;35.36;34.19;36.94;;
66455;Laerm;57651;51.438;5.982;2022-10-17T00:54:13;35.30;34.25;37.13;;
66455;Laerm;57651;51.438;5.982;2022-10-17T00:54:38;35.28;34.21;36.48;;
66455;Laerm;57651;51.438;5.982;2022-10-17T00:54:53;35.35;34.25;37.00;;
66455;Laerm;57651;51.438;5.982;2022-10-17T00:55:08;35.43;34.38;37.05;;
66455;Laerm;57651;51.438;5.982;2022-10-17T00:55:24;35.30;34.20;37.18;;
66455;Laerm;57651;51.438;5.982;2022-10-17T00:56:09;35.32;34.03;37.16;;
66455;Laerm;57651;51.438;5.982;2022-10-17T00:56:21;35.29;34.22;37.02;;
66455;Laerm;57651;51.438;5.982;2022-10-17T00:56:32;35.31;34.05;36.71;;
66455;Laerm;57651;51.438;5.982;2022-10-17T00:56:43;35.32;34.16;36.82;;
66455;Laerm;57651;51.438;5.982;2022-10-17T00:57:40;35.35;34.18;37.01;;
66455;Laerm;57651;51.438;5.982;2022-10-17T00:57:51;35.35;34.16;36.64;;
66455;Laerm;57651;51.438;5.982;2022-10-17T00:58:02;35.38;34.41;37.04;;
66455;Laerm;57651;51.438;5.982;2022-10-17T00:58:14;35.38;34.28;37.71;;
66455;Laerm;57651;51.438;5.982;2022-10-17T00:58:59;35.33;34.02;37.44;;
66455;Laerm;57651;51.438;5.982;2022-10-17T00:59:10;35.33;34.22;36.76;;
66455;Laerm;57651;51.438;5.982;2022-10-17T01:00:34;35.30;33.92;37.31;;
66455;Laerm;57651;51.438;5.982;2022-10-17T01:00:46;35.35;34.38;37.09;;
66455;Laerm;57651;51.438;5.982;2022-10-17T01:00:57;35.34;34.05;36.83;;
66455;Laerm;57651;51.438;5.982;2022-10-17T01:01:09;35.31;33.94;36.42;;
66455;Laerm;57651;51.438;5.982;2022-10-17T01:01:20;35.31;33.89;36.65;;
66455;Laerm;57651;51.438;5.982;2022-10-17T01:01:30;35.30;34.22;36.97;;
66455;Laerm;57651;51.438;5.982;2022-10-17T01:02:40;35.31;34.14;37.33;;
66455;Laerm;57651;51.438;5.982;2022-10-17T01:02:50;35.32;34.39;36.71;;
66455;Laerm;57651;51.438;5.982;2022-10-17T01:03:02;35.34;34.19;37.13;;
66455;Laerm;57651;51.438;5.982;2022-10-17T01:03:13;35.28;33.90;36.68;;
66455;Laerm;57651;51.438;5.982;2022-10-17T01:03:23;35.30;34.12;36.64;;
66455;Laerm;57651;51.438;5.982;2022-10-17T01:03:34;35.31;34.29;36.82;;
66455;Laerm;57651;51.438;5.982;2022-10-17T01:03:45;35.29;34.07;36.69;;
66455;Laerm;57651;51.438;5.982;2022-10-17T01:03:55;35.28;34.14;36.96;;
66455;Laerm;57651;51.438;5.982;2022-10-17T01:04:06;35.28;34.13;36.42;;
66455;Laerm;57651;51.438;5.982;2022-10-17T01:04:17;35.30;34.09;36.64;;
66455;Laerm;57651;51.438;5.982;2022-10-17T01:04:28;35.33;33.96;37.07;;
66455;Laerm;57651;51.438;5.982;2022-10-17T01:04:55;35.26;34.30;36.33;;
66455;Laerm;57651;51.438;5.982;2022-10-17T01:05:06;35.30;34.10;37.27;;
66455;Laerm;57651;51.438;5.982;2022-10-17T01:05:18;35.28;34.32;36.48;;
66455;Laerm;57651;51.438;5.982;2022-10-17T01:05:28;35.32;34.23;36.73;;
66455;Laerm;57651;51.438;5.982;2022-10-17T01:05:41;35.30;33.83;36.93;;
66455;Laerm;57651;51.438;5.982;2022-10-17T01:05:51;35.31;34.17;37.47;;
66455;Laerm;57651;51.438;5.982;2022-10-17T01:06:02;35.29;34.18;36.83;;
66455;Laerm;57651;51.438;5.982;2022-10-17T01:06:12;35.29;34.25;37.20;;
66455;Laerm;57651;51.438;5.982;2022-10-17T01:07:30;35.29;33.90;37.14;;
66455;Laerm;57651;51.438;5.982;2022-10-17T01:07:41;35.24;34.17;36.95;;
66455;Laerm;57651;51.438;5.982;2022-10-17T01:07:52;35.27;34.12;36.84;;
66455;Laerm;57651;51.438;5.982;2022-10-17T01:08:03;35.34;34.41;37.21;;
66455;Laerm;57651;51.438;5.982;2022-10-17T01:08:14;35.31;34.20;37.23;;
66455;Laerm;57651;51.438;5.982;2022-10-17T01:08:34;35.31;33.94;36.94;;
66455;Laerm;57651;51.438;5.982;2022-10-17T01:08:46;35.35;34.08;37.07;;
66455;Laerm;57651;51.438;5.982;2022-10-17T01:08:57;35.35;34.22;37.23;;
66455;Laerm;57651;51.438;5.982;2022-10-17T01:09:09;35.38;34.11;37.00;;
66455;Laerm;57651;51.438;5.982;2022-10-17T01:09:19;35.31;33.89;36.83;;
66455;Laerm;57651;51.438;5.982;2022-10-17T01:10:21;35.30;33.93;37.65;;
66455;Laerm;57651;51.438;5.982;2022-10-17T01:10:34;35.25;34.06;37.07;;
66455;Laerm;57651;51.438;5.982;2022-10-17T01:11:00;35.35;34.00;37.45;;
66455;Laerm;57651;51.438;5.982;2022-10-17T01:12:36;35.29;34.07;37.29;;
66455;Laerm;57651;51.438;5.982;2022-10-17T01:13:07;35.24;34.04;37.20;;
66455;Laerm;57651;51.438;5.982;2022-10-17T01:15:28;35.38;33.77;37.40;;
66455;Laerm;57651;51.438;5.982;2022-10-17T01:15:51;35.43;34.30;37.21;;
66455;Laerm;57651;51.438;5.982;2022-10-17T01:16:39;35.32;34.00;37.57;;
66455;Laerm;57651;51.438;5.982;2022-10-17T01:19:06;35.23;34.02;36.71;;
66455;Laerm;57651;51.438;5.982;2022-10-17T01:20:36;35.25;33.96;37.12;;
66455;Laerm;57651;51.438;5.982;2022-10-17T01:22:06;35.27;33.82;37.01;;
66455;Laerm;57651;51.438;5.982;2022-10-17T01:22:26;35.30;33.97;36.98;;
66455;Laerm;57651;51.438;5.982;2022-10-17T01:53:10;35.24;33.91;37.49;;
66455;Laerm;57651;51.438;5.982;2022-10-17T01:53:41;35.24;34.09;37.19;;
66455;Laerm;57651;51.438;5.982;2022-10-17T01:53:59;35.27;33.47;37.52;;
66455;Laerm;57651;51.438;5.982;2022-10-17T01:54:15;35.24;34.14;36.89;;
66455;Laerm;57651;51.438;5.982;2022-10-17T01:55:06;35.23;34.07;36.88;;
66455;Laerm;57651;51.438;5.982;2022-10-17T01:55:10;35.28;33.98;37.27;;
66455;Laerm;57651;51.438;5.982;2022-10-17T01:55:19;35.24;33.68;36.69;;
66455;Laerm;57651;51.438;5.982;2022-10-17T01:56:56;35.22;33.98;36.88;;
66455;Laerm;57651;51.438;5.982;2022-10-17T01:57:09;35.22;33.89;36.77;;
66455;Laerm;57651;51.438;5.982;2022-10-17T01:59:49;35.23;33.82;37.09;;
66455;Laerm;57651;51.438;5.982;2022-10-17T02:00:02;35.23;34.13;36.70;;
66455;Laerm;57651;51.438;5.982;2022-10-17T02:00:15;35.22;34.02;37.22;;
66455;Laerm;57651;51.438;5.982;2022-10-17T02:02:24;35.21;33.93;36.83;;
66455;Laerm;57651;51.438;5.982;2022-10-17T02:02:36;35.16;34.20;36.70;;
66455;Laerm;57651;51.438;5.982;2022-10-17T02:02:47;35.18;34.06;36.97;;
66455;Laerm;57651;51.438;5.982;2022-10-17T02:03:20;35.14;33.98;36.64;;
66455;Laerm;57651;51.438;5.982;2022-10-17T02:03:31;35.19;33.99;36.69;;
66455;Laerm;57651;51.438;5.982;2022-10-17T02:03:43;35.20;34.25;36.76;;
66455;Laerm;57651;51.438;5.982;2022-10-17T02:04:35;35.17;33.97;37.17;;
66455;Laerm;57651;51.438;5.982;2022-10-17T02:04:46;35.21;34.05;36.84;;
66455;Laerm;57651;51.438;5.982;2022-10-17T02:04:57;35.19;34.13;36.90;;
66455;Laerm;57651;51.438;5.982;2022-10-17T02:05:08;35.19;33.95;36.65;;
66455;Laerm;57651;51.438;5.982;2022-10-17T02:05:20;35.13;34.13;36.57;;
66455;Laerm;57651;51.438;5.982;2022-10-17T02:05:34;35.21;33.97;36.95;;
66455;Laerm;57651;51.438;5.982;2022-10-17T02:11:08;35.21;33.98;37.11;;
66455;Laerm;57651;51.438;5.982;2022-10-17T02:11:25;35.24;34.09;36.68;;
66455;Laerm;57651;51.438;5.982;2022-10-17T02:18:23;35.20;33.94;37.13;;
66455;Laerm;57651;51.438;5.982;2022-10-17T02:18:48;35.16;33.94;36.80;;
66455;Laerm;57651;51.438;5.982;2022-10-17T02:19:49;35.21;33.94;36.98;;
66455;Laerm;57651;51.438;5.982;2022-10-17T02:20:27;35.18;34.08;36.95;;
66455;Laerm;57651;51.438;5.982;2022-10-17T02:20:44;35.22;33.78;37.02;;
66455;Laerm;57651;51.438;5.982;2022-10-17T02:20:59;35.30;33.88;37.52;;
66455;Laerm;57651;51.438;5.982;2022-10-17T02:21:46;35.23;34.11;37.21;;
66455;Laerm;57651;51.438;5.982;2022-10-17T02:22:48;35.15;33.75;36.82;;
66455;Laerm;57651;51.438;5.982;2022-10-17T02:23:02;35.17;34.09;36.92;;
66455;Laerm;57651;51.438;5.982;2022-10-17T02:23:30;35.19;34.04;36.82;;
66455;Laerm;57651;51.438;5.982;2022-10-17T02:23:50;35.19;33.97;37.15;;
66455;Laerm;57651;51.438;5.982;2022-10-17T02:24:38;35.21;33.96;36.97;;
66455;Laerm;57651;51.438;5.982;2022-10-17T02:25:13;35.22;34.18;37.25;;
66455;Laerm;57651;51.438;5.982;2022-10-17T02:25:33;35.18;33.90;37.18;;
66455;Laerm;57651;51.438;5.982;2022-10-17T02:26:09;35.18;34.19;36.77;;
66455;Laerm;57651;51.438;5.982;2022-10-17T02:26:28;35.24;33.94;37.36;;
66455;Laerm;57651;51.438;5.982;2022-10-17T02:27:41;35.16;34.04;37.00;;
66455;Laerm;57651;51.438;5.982;2022-10-17T02:28:40;35.22;34.05;36.74;;
66455;Laerm;57651;51.438;5.982;2022-10-17T02:29:48;35.22;34.05;36.95;;
66455;Laerm;57651;51.438;5.982;2022-10-17T02:30:11;35.17;33.68;37.11;;
66455;Laerm;57651;51.438;5.982;2022-10-17T02:30:28;35.17;34.14;36.71;;
66455;Laerm;57651;51.438;5.982;2022-10-17T02:30:43;35.15;34.03;36.65;;
66455;Laerm;57651;51.438;5.982;2022-10-17T02:31:32;35.18;34.05;37.43;;
66455;Laerm;57651;51.438;5.982;2022-10-17T02:32:06;35.16;33.98;37.17;;
66455;Laerm;57651;51.438;5.982;2022-10-17T02:32:19;35.15;33.90;36.98;;
66455;Laerm;57651;51.438;5.982;2022-10-17T02:32:35;35.19;34.07;36.81;;
66455;Laerm;57651;51.438;5.982;2022-10-17T02:33:33;35.14;33.89;36.80;;
66455;Laerm;57651;51.438;5.982;2022-10-17T02:34:41;35.13;34.03;37.67;;
66455;Laerm;57651;51.438;5.982;2022-10-17T02:34:53;35.14;33.75;37.35;;
66455;Laerm;57651;51.438;5.982;2022-10-17T02:35:04;35.12;34.00;36.75;;
66455;Laerm;57651;51.438;5.982;2022-10-17T02:35:17;35.06;34.12;36.62;;
66455;Laerm;57651;51.438;5.982;2022-10-17T02:35:33;35.16;33.91;36.57;;
66455;Laerm;57651;51.438;5.982;2022-10-17T02:35:46;35.14;34.02;36.71;;
66455;Laerm;57651;51.438;5.982;2022-10-17T02:35:59;35.16;33.72;37.27;;
66455;Laerm;57651;51.438;5.982;2022-10-17T02:36:14;35.14;34.00;36.96;;
66455;Laerm;57651;51.438;5.982;2022-10-17T02:36:28;35.11;34.00;36.82;;
66455;Laerm;57651;51.438;5.982;2022-10-17T02:36:42;35.13;33.80;36.90;;
66455;Laerm;57651;51.438;5.982;2022-10-17T02:36:57;35.16;34.03;36.43;;
66455;Laerm;57651;51.438;5.982;2022-10-17T02:37:08;35.12;33.81;36.50;;
66455;Laerm;57651;51.438;5.982;2022-10-17T02:37:21;35.14;34.04;37.14;;
66455;Laerm;57651;51.438;5.982;2022-10-17T02:37:51;35.12;33.98;36.41;;
66455;Laerm;57651;51.438;5.982;2022-10-17T02:38:02;35.12;33.93;36.76;;
66455;Laerm;57651;51.438;5.982;2022-10-17T02:38:14;35.09;33.93;36.96;;
66455;Laerm;57651;51.438;5.982;2022-10-17T02:38:25;35.18;33.87;36.75;;
66455;Laerm;57651;51.438;5.982;2022-10-17T02:38:37;35.17;33.79;36.47;;
66455;Laerm;57651;51.438;5.982;2022-10-17T02:38:48;35.15;33.98;36.72;;
66455;Laerm;57651;51.438;5.982;2022-10-17T02:39:00;35.16;33.96;36.85;;
66455;Laerm;57651;51.438;5.982;2022-10-17T02:39:10;35.07;33.93;36.62;;
66455;Laerm;57651;51.438;5.982;2022-10-17T02:39:22;35.15;33.79;36.83;;
66455;Laerm;57651;51.438;5.982;2022-10-17T02:39:34;35.15;33.51;36.74;;
66455;Laerm;57651;51.438;5.982;2022-10-17T02:39:46;35.13;34.03;36.56;;
66455;Laerm;57651;51.438;5.982;2022-10-17T02:39:58;35.14;33.82;36.79;;
66455;Laerm;57651;51.438;5.982;2022-10-17T02:40:10;35.17;33.94;36.70;;
66455;Laerm;57651;51.438;5.982;2022-10-17T02:40:23;35.21;34.24;37.33;;
66455;Laerm;57651;51.438;5.982;2022-10-17T02:40:33;35.11;34.02;36.94;;
66455;Laerm;57651;51.438;5.982;2022-10-17T02:40:45;35.18;34.17;36.62;;
66455;Laerm;57651;51.438;5.982;2022-10-17T02:40:56;35.15;33.58;36.62;;
66455;Laerm;57651;51.438;5.982;2022-10-17T02:41:07;35.14;34.18;36.70;;
66455;Laerm;57651;51.438;5.982;2022-10-17T02:41:19;35.14;34.07;36.66;;
66455;Laerm;57651;51.438;5.982;2022-10-17T02:41:31;35.11;34.03;37.06;;
66455;Laerm;57651;51.438;5.982;2022-10-17T02:41:42;35.15;33.90;36.75;;
66455;Laerm;57651;51.438;5.982;2022-10-17T02:41:54;35.13;33.86;36.93;;
66455;Laerm;57651;51.438;5.982;2022-10-17T02:42:07;35.10;33.95;36.62;;
66455;Laerm;57651;51.438;5.982;2022-10-17T02:42:19;35.16;33.93;37.08;;
66455;Laerm;57651;51.438;5.982;2022-10-17T02:42:31;35.13;33.95;36.88;;
66455;Laerm;57651;51.438;5.982;2022-10-17T02:42:43;35.09;34.09;36.73;;
66455;Laerm;57651;51.438;5.982;2022-10-17T02:42:54;35.09;34.09;36.66;;
66455;Laerm;57651;51.438;5.982;2022-10-17T02:43:05;35.12;33.92;36.43;;
66455;Laerm;57651;51.438;5.982;2022-10-17T02:43:15;35.07;34.06;36.88;;
66455;Laerm;57651;51.438;5.982;2022-10-17T02:43:27;35.13;34.07;36.39;;
66455;Laerm;57651;51.438;5.982;2022-10-17T02:43:38;35.15;33.69;36.65;;
66455;Laerm;57651;51.438;5.982;2022-10-17T02:43:49;35.12;33.83;36.40;;
66455;Laerm;57651;51.438;5.982;2022-10-17T02:44:01;35.05;33.80;36.86;;
66455;Laerm;57651;51.438;5.982;2022-10-17T02:44:12;35.21;33.89;37.02;;
66455;Laerm;57651;51.438;5.982;2022-10-17T02:44:23;35.09;34.11;36.50;;
66455;Laerm;57651;51.438;5.982;2022-10-17T02:44:34;35.15;33.97;36.95;;
66455;Laerm;57651;51.438;5.982;2022-10-17T02:44:46;35.12;33.88;36.49;;
66455;Laerm;57651;51.438;5.982;2022-10-17T02:45:03;35.15;33.99;36.76;;
66455;Laerm;57651;51.438;5.982;2022-10-17T02:45:15;35.17;33.57;37.53;;
66455;Laerm;57651;51.438;5.982;2022-10-17T02:45:27;35.05;33.74;36.57;;
66455;Laerm;57651;51.438;5.982;2022-10-17T02:45:38;35.11;34.11;36.71;;
66455;Laerm;57651;51.438;5.982;2022-10-17T02:45:49;35.17;33.90;36.51;;
66455;Laerm;57651;51.438;5.982;2022-10-17T02:46:01;35.15;34.03;36.90;;
66455;Laerm;57651;51.438;5.982;2022-10-17T02:46:12;35.13;34.01;36.89;;
66455;Laerm;57651;51.438;5.982;2022-10-17T02:46:30;35.15;33.86;36.48;;
66455;Laerm;57651;51.438;5.982;2022-10-17T02:46:44;35.11;33.94;36.94;;
66455;Laerm;57651;51.438;5.982;2022-10-17T02:47:09;35.11;33.98;36.59;;
66455;Laerm;57651;51.438;5.982;2022-10-17T02:47:22;35.14;33.94;36.78;;
66455;Laerm;57651;51.438;5.982;2022-10-17T02:47:35;35.12;33.72;37.41;;
66455;Laerm;57651;51.438;5.982;2022-10-17T02:47:59;35.11;33.85;36.88;;
66455;Laerm;57651;51.438;5.982;2022-10-17T02:48:14;35.08;33.82;36.94;;
66455;Laerm;57651;51.438;5.982;2022-10-17T02:48:47;35.09;33.78;37.02;;
66455;Laerm;57651;51.438;5.982;2022-10-17T02:49:06;35.08;33.97;36.62;;
66455;Laerm;57651;51.438;5.982;2022-10-17T02:49:22;35.10;33.83;36.90;;